Time;durP1;ratioP1;P1;durP2;ratioP2;P2;SDS_P1;SDS_P2;PMS_P1;PMS_P2;Temp;Humidity;BMP_temperature;BMP_pressure;BME280_temperature;BME280_humidity;BME280_pressure;Samples;Min_cycle;Max_cycle;Signal;HPM_P1;HPM_P2
2021/06/01 00:01:35;;;;;;;21.95;13.82;;;;;;;12.42;68.39;92868.84;4976706;28;20053;-79
2021/06/01 00:04:00;;;;;;;23.15;13.63;;;;;;;12.42;67.83;92864.38;4994823;28;20475;-78
2021/06/01 00:06:26;;;;;;;21.20;13.25;;;;;;;12.44;67.54;92864.09;4988127;28;20045;-79
2021/06/01 00:08:53;;;;;;;21.52;14.20;;;;;;;12.53;67.85;92866.84;4955765;28;20065;-79
2021/06/01 00:11:19;;;;;;;22.05;13.70;;;;;;;12.54;67.81;92866.56;4941993;28;20047;-78
2021/06/01 00:13:45;;;;;;;20.60;13.95;;;;;;;12.56;67.60;92869.66;4975212;28;20491;-79
2021/06/01 00:16:12;;;;;;;22.10;14.32;;;;;;;12.58;67.31;92872.00;4959390;28;20057;-79
2021/06/01 00:18:39;;;;;;;20.23;13.50;;;;;;;12.61;67.27;92860.91;4975041;28;20043;-79
2021/06/01 00:21:06;;;;;;;21.88;13.70;;;;;;;12.64;67.23;92863.75;4962190;28;20038;-80
2021/06/01 00:23:35;;;;;;;22.27;14.32;;;;;;;12.66;67.56;92861.63;4994174;28;20535;-79
2021/06/01 00:26:02;;;;;;;25.27;14.82;;;;;;;12.69;67.01;92871.53;4976923;28;20535;-79
2021/06/01 00:28:27;;;;;;;20.90;14.00;;;;;;;12.71;66.95;92864.16;4980174;28;20512;-78
2021/06/01 00:30:53;;;;;;;21.00;13.82;;;;;;;12.76;67.00;92868.53;4972994;28;20047;-78
2021/06/01 00:33:19;;;;;;;24.25;13.15;;;;;;;12.79;67.16;92872.44;4988252;28;20039;-78
2021/06/01 00:35:45;;;;;;;21.88;14.02;;;;;;;12.79;67.08;92867.97;4977550;28;20531;-78
2021/06/01 00:38:11;;;;;;;21.42;13.57;;;;;;;12.81;67.41;92870.28;4975649;28;20046;-77
2021/06/01 00:40:37;;;;;;;24.13;13.88;;;;;;;12.84;67.27;92869.72;4975247;28;20043;-79
2021/06/01 00:43:03;;;;;;;19.65;13.20;;;;;;;12.85;66.97;92877.31;4988268;28;20527;-79
2021/06/01 00:45:28;;;;;;;22.45;12.43;;;;;;;12.88;67.04;92882.00;4974066;28;20054;-79
2021/06/01 00:47:55;;;;;;;19.58;12.13;;;;;;;12.89;66.59;92878.28;4952590;29;20168;-79
2021/06/01 00:50:24;;;;;;;19.25;13.00;;;;;;;12.95;65.03;92879.00;4958059;28;20042;-78
2021/06/01 00:52:51;;;;;;;21.85;13.35;;;;;;;13.02;64.80;92882.00;4974477;28;20065;-78
2021/06/01 00:55:17;;;;;;;20.55;12.55;;;;;;;13.03;65.30;92883.56;4988267;28;20141;-80
2021/06/01 00:57:43;;;;;;;20.98;12.95;;;;;;;13.03;65.59;92886.19;4972458;28;20039;-77
2021/06/01 01:00:21;;;;;;;22.35;12.88;;;;;;;13.05;65.73;92885.91;4951989;29;20495;-78
2021/06/01 01:02:47;;;;;;;21.08;12.48;;;;;;;13.04;65.54;92885.13;4953769;29;20051;-79
2021/06/01 01:05:14;;;;;;;22.52;12.82;;;;;;;13.04;65.10;92885.13;4966264;28;20038;-79
2021/06/01 01:07:57;;;;;;;19.63;12.63;;;;;;;13.08;64.52;92883.47;4956570;28;20055;-78
2021/06/01 01:10:26;;;;;;;18.70;12.00;;;;;;;13.08;64.88;92883.47;4988822;28;20529;-80
2021/06/01 01:13:01;;;;;;;18.58;12.40;;;;;;;13.10;65.00;92889.22;4992637;28;21389;-79
2021/06/01 01:15:29;;;;;;;21.08;12.23;;;;;;;13.10;65.29;92886.59;4978589;28;20071;-79
2021/06/01 01:17:57;;;;;;;19.17;11.90;;;;;;;13.09;65.58;92885.03;4993318;28;20405;-79
2021/06/01 01:20:35;;;;;;;21.40;11.40;;;;;;;13.09;65.47;92885.03;4993366;28;20078;-80
2021/06/01 01:23:16;;;;;;;23.92;13.15;;;;;;;13.09;65.24;92885.03;4997523;28;20073;-78
2021/06/01 01:26:11;;;;;;;23.08;12.35;;;;;;;13.10;64.91;92878.72;4985020;28;20046;-78
2021/06/01 01:29:01;;;;;;;23.77;12.50;;;;;;;13.12;64.46;92873.91;4978108;28;20342;-80
2021/06/01 01:31:38;;;;;;;17.38;11.27;;;;;;;13.13;66.30;92872.88;4976824;28;20055;-79
2021/06/01 01:34:06;;;;;;;28.27;12.23;;;;;;;13.16;66.38;92881.25;4978652;28;20066;-80
2021/06/01 01:36:34;;;;;;;22.65;11.38;;;;;;;13.16;66.77;92881.25;4978079;28;20035;-79
2021/06/01 01:39:01;;;;;;;17.60;11.52;;;;;;;13.15;66.82;92884.91;4961816;28;20070;-79
2021/06/01 01:41:27;;;;;;;18.17;11.32;;;;;;;13.12;66.94;92875.78;4978225;28;20051;-79
2021/06/01 01:43:56;;;;;;;17.20;11.13;;;;;;;13.12;66.57;92873.16;4977534;28;20043;-80
2021/06/01 01:49:05;;;;;;;18.57;11.33;;;;;;;13.13;65.78;92877.34;4975576;28;20125;-79
2021/06/01 01:51:32;;;;;;;22.92;10.98;;;;;;;13.13;64.76;92877.34;4997003;28;20088;-79
2021/06/01 01:53:59;;;;;;;18.60;10.05;;;;;;;13.13;64.29;92883.38;4997761;28;20046;-80
2021/06/01 01:56:39;;;;;;;18.05;10.90;;;;;;;13.14;64.71;92878.91;4997034;28;20425;-80
2021/06/01 01:59:08;;;;;;;22.48;11.38;;;;;;;13.10;64.71;92883.97;4957569;28;20058;-79
2021/06/01 02:01:35;;;;;;;19.48;10.77;;;;;;;13.15;64.53;92892.81;4977406;28;20099;-78
2021/06/01 02:04:02;;;;;;;18.60;10.13;;;;;;;13.13;64.93;92888.63;4979546;28;21014;-80
2021/06/01 02:06:28;;;;;;;17.40;10.60;;;;;;;13.13;64.49;92886.00;4977244;28;20106;-79
2021/06/01 02:08:54;;;;;;;17.50;9.65;;;;;;;13.13;64.98;92885.25;4970840;28;20051;-79
2021/06/01 02:11:21;;;;;;;17.20;9.52;;;;;;;13.12;64.85;92884.44;4958848;28;20102;-80
2021/06/01 02:13:59;;;;;;;19.67;10.07;;;;;;;13.12;64.77;92883.66;4941331;29;20122;-78
2021/06/01 02:16:25;;;;;;;14.20;9.32;;;;;;;13.12;64.53;92887.06;4959710;28;20047;-76
2021/06/01 02:18:52;;;;;;;16.33;9.63;;;;;;;13.12;63.65;92891.53;4937342;29;20043;-80
2021/06/01 02:24:36;;;;;;;16.30;9.95;;;;;;;13.13;63.47;92886.00;4976979;28;20045;-79
2021/06/01 02:27:28;;;;;;;14.38;8.50;;;;;;;13.13;63.58;92886.00;4967782;28;20154;-79
2021/06/01 02:30:05;;;;;;;15.70;9.52;;;;;;;13.12;63.54;92889.69;4924939;28;20035;-80
2021/06/01 02:32:44;;;;;;;18.92;9.73;;;;;;;13.12;62.86;92883.66;4976639;28;20105;-79
2021/06/01 02:35:17;;;;;;;18.10;9.20;;;;;;;13.12;62.49;92887.06;4945059;29;20099;-80
2021/06/01 02:37:46;;;;;;;17.08;9.50;;;;;;;13.13;62.73;92890.50;4952992;28;20434;-81
2021/06/01 02:40:14;;;;;;;16.42;8.90;;;;;;;13.11;63.09;92880.25;4953074;29;20564;-79
2021/06/01 02:42:42;;;;;;;13.57;8.73;;;;;;;13.09;63.14;92882.41;4940941;29;20051;-79
2021/06/01 02:45:09;;;;;;;14.57;8.75;;;;;;;13.11;63.34;92884.75;4958029;29;20031;-79
2021/06/01 02:47:36;;;;;;;18.88;9.50;;;;;;;13.11;63.17;92877.63;4957834;28;20075;-79
2021/06/01 02:50:08;;;;;;;15.55;9.13;;;;;;;13.11;62.05;92882.88;4962542;28;20553;-78
2021/06/01 02:52:34;;;;;;;21.42;8.98;;;;;;;13.09;62.90;92871.88;4959464;28;20105;-79
2021/06/01 02:55:01;;;;;;;16.08;9.48;;;;;;;13.08;62.92;92872.16;4977361;28;20035;-78
2021/06/01 02:57:28;;;;;;;16.80;8.90;;;;;;;13.06;63.20;92871.69;4976773;28;20046;-79
2021/06/01 02:59:54;;;;;;;17.85;9.18;;;;;;;13.04;64.08;92866.72;4976629;28;20045;-79
2021/06/01 03:02:20;;;;;;;16.17;8.88;;;;;;;13.03;64.28;92867.78;4961891;28;20051;-80
2021/06/01 03:04:50;;;;;;;17.05;10.40;;;;;;;13.02;64.21;92868.88;4940064;29;20106;-80
2021/06/01 03:07:16;;;;;;;16.05;8.80;;;;;;;12.98;64.37;92865.25;4957105;29;20043;-80
2021/06/01 03:09:42;;;;;;;14.88;9.00;;;;;;;12.97;64.75;92865.53;4940844;28;20076;-79
2021/06/01 03:12:09;;;;;;;16.83;8.00;;;;;;;12.91;64.91;92863.00;4976777;28;20058;-79
2021/06/01 03:14:35;;;;;;;17.10;8.90;;;;;;;12.91;65.23;92862.25;4975885;28;20051;-79
2021/06/01 03:17:00;;;;;;;15.13;8.68;;;;;;;12.87;65.13;92869.16;4991462;28;20198;-80
2021/06/01 03:19:26;;;;;;;13.40;8.55;;;;;;;12.84;65.04;92860.00;4973848;28;20035;-79
2021/06/01 03:21:52;;;;;;;14.57;8.48;;;;;;;12.78;65.13;92861.16;4976248;28;20126;-80
2021/06/01 03:24:17;;;;;;;15.07;8.43;;;;;;;12.74;65.29;92862.03;4991637;28;20143;-80
2021/06/01 03:26:43;;;;;;;14.73;8.18;;;;;;;12.69;65.30;92861.03;4958551;28;20218;-80
2021/06/01 03:29:08;;;;;;;13.50;8.35;;;;;;;12.65;65.38;92859.28;4967945;28;20244;-80
2021/06/01 03:31:34;;;;;;;14.55;9.05;;;;;;;12.60;65.77;92860.16;4993226;28;20101;-79
2021/06/01 03:34:00;;;;;;;14.60;8.98;;;;;;;12.54;66.30;92869.19;4990405;28;20069;-79
2021/06/01 03:36:25;;;;;;;13.70;8.18;;;;;;;12.48;66.62;92859.84;4975740;28;20047;-79
2021/06/01 03:38:52;;;;;;;14.77;9.05;;;;;;;12.39;66.61;92864.97;4975885;28;20409;-79
2021/06/01 03:41:18;;;;;;;16.23;8.88;;;;;;;12.33;66.72;92870.59;4991523;28;20038;-78
2021/06/01 03:43:44;;;;;;;20.33;9.38;;;;;;;12.28;66.82;92866.19;4991888;28;20488;-79
2021/06/01 03:46:09;;;;;;;16.77;9.80;;;;;;;12.23;66.76;92871.53;4975720;28;20062;-79
2021/06/01 03:48:35;;;;;;;15.23;9.43;;;;;;;12.16;67.14;92871.91;4975252;28;20026;-80
2021/06/01 03:51:00;;;;;;;15.90;9.93;;;;;;;12.10;67.49;92870.41;4958394;28;20481;-80
2021/06/01 03:53:28;;;;;;;15.05;9.90;;;;;;;12.04;67.45;92864.44;4956510;28;20038;-80
2021/06/01 03:55:54;;;;;;;18.98;10.07;;;;;;;11.99;67.73;92869.78;4957011;28;20086;-80
2021/06/01 03:58:20;;;;;;;19.40;10.55;;;;;;;11.95;67.46;92870.63;4975631;28;20155;-79
2021/06/01 04:00:46;;;;;;;16.55;10.13;;;;;;;11.88;67.26;92863.88;4957565;28;20089;-79
2021/06/01 04:03:12;;;;;;;17.50;9.82;;;;;;;11.86;67.58;92863.34;4975100;28;20035;-79
2021/06/01 04:05:37;;;;;;;15.18;9.55;;;;;;;11.84;67.90;92864.72;4974360;28;20054;-80
2021/06/01 04:08:05;;;;;;;23.20;10.35;;;;;;;11.79;67.54;92862.94;4942064;28;20038;-78
2021/06/01 04:10:33;;;;;;;18.65;10.55;;;;;;;11.77;67.91;92870.31;4971419;28;20429;-80
2021/06/01 04:12:58;;;;;;;13.48;9.63;;;;;;;11.77;68.30;92869.53;4990743;28;20417;-80
2021/06/01 04:15:25;;;;;;;15.98;10.07;;;;;;;11.78;67.96;92865.88;4977697;28;20054;-79
2021/06/01 04:17:50;;;;;;;19.02;10.25;;;;;;;11.77;67.79;92872.16;4974023;28;20048;-79
2021/06/01 04:20:17;;;;;;;21.05;10.65;;;;;;;11.78;67.93;92866.63;4975665;28;20035;-79
2021/06/01 04:22:44;;;;;;;16.27;10.45;;;;;;;11.78;67.78;92865.88;4971601;28;20050;-78
2021/06/01 04:25:10;;;;;;;17.33;10.18;;;;;;;11.82;67.61;92859.75;4956458;28;20490;-79
2021/06/01 04:27:35;;;;;;;20.27;10.95;;;;;;;11.86;67.40;92857.34;4990627;28;20088;-79
2021/06/01 04:30:02;;;;;;;25.45;10.05;;;;;;;11.90;67.56;92868.09;4985140;28;20418;-78
2021/06/01 04:32:46;;;;;;;19.88;10.98;;;;;;;11.92;68.32;92860.72;4974928;28;20035;-79
2021/06/01 04:35:13;;;;;;;15.10;10.23;;;;;;;11.95;67.86;92866.16;4972498;28;20039;-78
2021/06/01 04:37:39;;;;;;;21.42;11.77;;;;;;;12.00;67.69;92857.44;4969670;28;20029;-78
2021/06/01 04:40:06;;;;;;;17.90;10.93;;;;;;;12.06;67.18;92856.28;4956204;28;20043;-77
2021/06/01 04:42:32;;;;;;;20.40;11.45;;;;;;;12.13;67.77;92861.94;4954826;28;20053;-78
2021/06/01 04:44:58;;;;;;;23.38;11.23;;;;;;;12.21;67.35;92860.53;4963279;28;20445;-77
2021/06/01 04:47:23;;;;;;;22.27;10.95;;;;;;;12.29;66.77;92863.28;4976507;28;20105;-78
2021/06/01 04:49:49;;;;;;;15.60;10.90;;;;;;;12.38;66.80;92857.38;4994899;28;20061;-78
2021/06/01 04:52:15;;;;;;;22.67;10.73;;;;;;;12.47;66.76;92858.25;4991329;28;20089;-78
2021/06/01 04:54:41;;;;;;;18.65;11.65;;;;;;;12.59;66.32;92853.34;4984531;28;20073;-78
2021/06/01 04:57:07;;;;;;;23.35;11.90;;;;;;;12.68;66.46;92851.63;4975449;28;20066;-80
2021/06/01 04:59:35;;;;;;;22.90;11.30;;;;;;;12.81;66.16;92855.34;4957790;28;20043;-78
2021/06/01 05:02:21;;;;;;;15.65;9.40;;;;;;;12.98;65.49;92856.59;4986018;28;20043;-79
2021/06/01 05:04:46;;;;;;;15.63;10.45;;;;;;;13.12;64.60;92849.50;4979893;28;20051;-78
2021/06/01 05:07:12;;;;;;;17.23;11.30;;;;;;;13.30;64.89;92855.75;4965886;28;20038;-78
2021/06/01 05:09:38;;;;;;;19.25;10.32;;;;;;;13.47;63.66;92853.31;4975005;28;20063;-77
2021/06/01 05:12:05;;;;;;;14.30;9.95;;;;;;;13.67;62.63;92856.59;4974225;28;20528;-79
2021/06/01 05:14:31;;;;;;;15.95;10.10;;;;;;;13.86;61.96;92857.22;4969806;28;20078;-79
2021/06/01 05:16:56;;;;;;;15.63;10.57;;;;;;;14.07;61.58;92849.66;4962506;28;20485;-77
2021/06/01 05:19:22;;;;;;;14.73;8.75;;;;;;;14.17;63.16;92843.38;4971414;28;20045;-79
2021/06/01 05:21:47;;;;;;;17.42;9.30;;;;;;;14.12;63.59;92859.28;4977048;28;20042;-79
2021/06/01 05:24:13;;;;;;;13.75;9.10;;;;;;;14.25;61.61;92850.56;4955157;28;20427;-79
2021/06/01 05:26:40;;;;;;;12.27;7.72;;;;;;;13.98;65.29;92848.78;4952913;28;20062;-77
2021/06/01 05:29:05;;;;;;;15.35;8.52;;;;;;;14.01;64.21;92855.34;4950636;29;20106;-78
2021/06/01 05:31:43;;;;;;;15.23;8.50;;;;;;;14.26;64.64;92854.72;4955321;29;20557;-79
2021/06/01 05:34:11;;;;;;;13.60;9.13;;;;;;;14.68;61.66;92844.00;4956248;29;20059;-77
2021/06/01 05:36:37;;;;;;;15.75;9.93;;;;;;;14.92;60.66;92849.69;4955792;29;20494;-77
2021/06/01 05:39:05;;;;;;;15.43;9.82;;;;;;;15.01;57.46;92846.34;4936776;29;20102;-79
2021/06/01 05:41:31;;;;;;;15.43;10.00;;;;;;;15.14;57.06;92853.38;4954507;28;20043;-77
2021/06/01 05:43:57;;;;;;;19.13;10.25;;;;;;;15.00;58.86;92856.09;4954880;28;20058;-78
2021/06/01 05:46:22;;;;;;;18.08;10.63;;;;;;;15.60;56.03;92858.16;4939087;29;20050;-78
2021/06/01 05:48:48;;;;;;;14.13;7.53;;;;;;;16.62;56.28;92856.94;4954818;29;20047;-78
2021/06/01 05:51:16;;;;;;;12.32;8.85;;;;;;;17.01;53.70;92847.22;4955139;29;20046;-76
2021/06/01 05:53:42;;;;;;;14.15;8.68;;;;;;;18.43;50.14;92847.59;4955236;29;20086;-78
2021/06/01 05:56:08;;;;;;;13.88;8.60;;;;;;;20.01;45.31;92842.03;4956288;28;20361;-78
2021/06/01 05:58:33;;;;;;;14.25;8.65;;;;;;;20.47;43.77;92839.13;4955642;29;20076;-80
2021/06/01 06:00:59;;;;;;;16.13;9.32;;;;;;;17.67;49.12;92836.16;4971742;28;20050;-78
2021/06/01 06:03:25;;;;;;;15.07;9.50;;;;;;;19.73;44.22;92832.13;4956631;29;20042;-78
2021/06/01 06:05:50;;;;;;;16.08;7.95;;;;;;;21.09;42.46;92840.34;4944670;28;20057;-79
2021/06/01 06:08:18;;;;;;;13.85;7.97;;;;;;;21.38;42.88;92825.84;4944837;28;20047;-79
2021/06/01 06:10:45;;;;;;;12.85;7.95;;;;;;;22.09;41.64;92830.44;4972520;28;20370;-79
2021/06/01 06:13:11;;;;;;;12.20;7.45;;;;;;;21.38;44.15;92831.16;4956379;28;20187;-80
2021/06/01 06:15:37;;;;;;;13.40;7.85;;;;;;;21.29;44.23;92833.25;4956249;29;20047;-80
2021/06/01 06:18:12;;;;;;;11.02;6.75;;;;;;;21.14;45.80;92836.66;4956870;28;20035;-80
2021/06/01 06:20:38;;;;;;;15.30;7.38;;;;;;;20.32;46.97;92841.38;4974874;28;20125;-79
2021/06/01 06:23:03;;;;;;;17.30;7.70;;;;;;;17.91;54.14;92837.44;4973371;28;20069;-78
2021/06/01 06:25:29;;;;;;;13.20;7.95;;;;;;;16.85;58.95;92846.19;4980404;28;20049;-79
2021/06/01 06:27:55;;;;;;;15.35;8.50;;;;;;;16.69;56.71;92843.25;4993764;28;20421;-79
2021/06/01 06:30:23;;;;;;;16.70;8.65;;;;;;;16.97;56.11;92843.66;4992650;28;20133;-79
2021/06/01 06:32:48;;;;;;;12.90;8.70;;;;;;;16.10;57.73;92848.28;4961153;28;20038;-79
2021/06/01 06:35:14;;;;;;;24.60;10.65;;;;;;;16.65;53.96;92845.72;4974171;28;20080;-79
2021/06/01 06:37:40;;;;;;;14.90;9.30;;;;;;;18.51;51.70;92846.75;4977510;28;20047;-79
2021/06/01 06:40:49;;;;;;;15.43;9.63;;;;;;;19.80;49.17;92836.09;4987932;28;20058;-79
2021/06/01 06:43:15;;;;;;;18.17;9.90;;;;;;;20.31;46.16;92837.19;4979431;28;20398;-79
2021/06/01 06:45:41;;;;;;;15.50;10.27;;;;;;;19.48;45.33;92841.19;4980918;28;20046;-79
2021/06/01 06:48:26;;;;;;;14.43;8.82;;;;;;;19.47;49.61;92839.63;4947224;28;20493;-80
2021/06/01 06:50:51;;;;;;;16.65;11.65;;;;;;;18.35;49.85;92835.22;4964621;28;20057;-79
2021/06/01 06:53:19;;;;;;;16.50;11.38;;;;;;;18.90;47.99;92834.06;4980077;28;20058;-80
2021/06/01 06:55:44;;;;;;;22.08;10.95;;;;;;;19.43;46.42;92830.78;4979494;28;20054;-80
2021/06/01 07:16:01;;;;;;;17.77;11.80;;;;;;;17.40;50.63;92824.16;4652280;26;20429;-80
2021/06/01 07:18:27;;;;;;;15.98;11.80;;;;;;;17.99;48.84;92825.22;4971015;28;20054;-80
2021/06/01 07:21:30;;;;;;;15.10;10.55;;;;;;;18.37;49.59;92824.28;5002557;28;20045;-79
2021/06/01 07:23:56;;;;;;;16.38;9.80;;;;;;;17.28;54.25;92824.06;5000722;28;20492;-80
2021/06/01 07:26:21;;;;;;;18.33;10.80;;;;;;;17.89;52.37;92823.72;5000380;28;20046;-78
2021/06/01 07:28:47;;;;;;;17.40;10.13;;;;;;;17.96;52.47;92823.97;5000909;28;20060;-81
2021/06/01 07:31:15;;;;;;;18.42;11.05;;;;;;;18.17;51.77;92817.91;4970367;28;20073;-82
2021/06/01 07:33:41;;;;;;;17.80;11.77;;;;;;;17.40;52.49;92824.16;4983638;28;20063;-78
2021/06/01 07:36:08;;;;;;;22.33;10.85;;;;;;;18.26;50.83;92818.59;4974887;28;20046;-77
2021/06/01 07:38:35;;;;;;;13.25;8.00;;;;;;;17.77;53.69;92811.19;4990299;28;20030;-82
2021/06/01 07:41:02;;;;;;;15.43;9.75;;;;;;;18.01;51.91;92810.56;4963895;28;20075;-81
2021/06/01 07:43:29;;;;;;;14.40;9.55;;;;;;;17.24;52.20;92809.94;4964282;28;20058;-80
2021/06/01 07:45:55;;;;;;;14.73;8.30;;;;;;;16.79;50.44;92802.47;4986067;28;20047;-80
2021/06/01 07:48:21;;;;;;;15.20;10.25;;;;;;;15.98;54.62;92801.38;4970707;28;20187;-81
2021/06/01 07:50:47;;;;;;;20.60;11.00;;;;;;;16.00;55.74;92802.63;4984970;28;20046;-80
2021/06/01 07:53:12;;;;;;;15.77;9.68;;;;;;;16.35;55.38;92805.22;4984252;28;20097;-80
2021/06/01 07:55:38;;;;;;;16.15;10.85;;;;;;;16.57;54.49;92798.97;5001351;28;20058;-80
2021/06/01 07:58:04;;;;;;;14.13;8.85;;;;;;;17.18;55.16;92795.31;4999712;28;20104;-81
2021/06/01 08:00:30;;;;;;;14.02;9.18;;;;;;;17.22;53.45;92797.00;4999637;28;20543;-81
2021/06/01 08:02:55;;;;;;;13.23;8.68;;;;;;;17.03;54.10;92799.31;5000549;28;20045;-78
2021/06/01 08:05:22;;;;;;;13.13;8.32;;;;;;;17.22;54.35;92794.38;4981842;28;20050;-78
2021/06/01 08:07:49;;;;;;;15.80;8.88;;;;;;;17.30;52.68;92802.59;4968521;28;20136;-80
2021/06/01 08:10:16;;;;;;;18.10;11.60;;;;;;;17.89;53.67;92802.53;4975628;28;20047;-80
2021/06/01 08:12:43;;;;;;;16.83;11.23;;;;;;;18.20;51.31;92802.13;4964822;28;20097;-81
2021/06/01 08:15:09;;;;;;;17.42;10.98;;;;;;;18.72;50.29;92800.84;4992130;28;20073;-80
2021/06/01 08:17:35;;;;;;;13.02;8.20;;;;;;;18.01;50.25;92794.69;4979550;28;20128;-81
2021/06/01 08:20:13;;;;;;;18.83;9.18;;;;;;;18.31;49.12;92794.56;4976094;28;20074;-82
2021/06/01 08:22:40;;;;;;;17.00;10.05;;;;;;;18.30;50.91;92800.94;4975790;28;20060;-81
2021/06/01 08:25:07;;;;;;;18.63;10.77;;;;;;;18.29;50.25;92799.41;4967600;28;20034;-81
2021/06/01 08:27:32;;;;;;;17.52;10.50;;;;;;;18.57;50.03;92796.19;4995354;28;20042;-79
2021/06/01 08:29:58;;;;;;;15.13;10.40;;;;;;;19.39;48.83;92803.38;4995023;28;20041;-79
2021/06/01 08:32:25;;;;;;;14.90;9.35;;;;;;;19.12;47.51;92802.94;4981773;28;20133;-79
2021/06/01 08:34:50;;;;;;;14.32;8.00;;;;;;;18.68;47.54;92794.66;4994654;28;20069;-81
2021/06/01 08:37:16;;;;;;;14.30;7.70;;;;;;;17.89;50.75;92805.97;4986674;28;20471;-78
2021/06/01 08:39:42;;;;;;;17.40;7.35;;;;;;;18.71;49.25;92799.28;4981566;28;20030;-79
2021/06/01 08:42:07;;;;;;;11.27;7.47;;;;;;;18.10;49.90;92797.22;4941709;28;20054;-80
2021/06/01 08:44:33;;;;;;;15.45;8.63;;;;;;;18.02;51.05;92800.75;4957001;28;20043;-77
2021/06/01 08:47:02;;;;;;;19.13;10.20;;;;;;;18.50;49.20;92802.78;4940342;28;20042;-80
2021/06/01 08:49:31;;;;;;;13.63;8.65;;;;;;;18.84;48.42;92795.59;4956833;28;20050;-79
2021/06/01 08:51:56;;;;;;;13.10;8.02;;;;;;;19.00;48.46;92789.63;4990046;28;20074;-78
2021/06/01 08:54:22;;;;;;;13.05;8.73;;;;;;;18.43;50.15;92791.94;4993215;28;20501;-80
2021/06/01 08:56:49;;;;;;;11.25;7.22;;;;;;;18.81;49.47;92783.00;4994443;28;20039;-79
2021/06/01 08:59:15;;;;;;;13.60;8.55;;;;;;;17.92;49.96;92791.28;4960664;28;20047;-78
2021/06/01 09:01:44;;;;;;;11.85;7.85;;;;;;;18.48;49.98;92796.25;4993798;28;20052;-80
2021/06/01 09:04:13;;;;;;;12.25;7.55;;;;;;;17.92;50.61;92790.53;4993840;28;20416;-79
2021/06/01 09:06:57;;;;;;;12.80;8.15;;;;;;;18.33;50.22;92796.88;4977861;28;20062;-79
2021/06/01 09:09:50;;;;;;;12.75;8.38;;;;;;;17.93;49.51;92803.47;4976074;28;20181;-77
2021/06/01 09:12:44;;;;;;;15.80;8.20;;;;;;;18.71;50.35;92793.97;4976400;28;20047;-79
2021/06/01 09:15:32;;;;;;;12.10;7.05;;;;;;;17.69;51.22;92788.94;4950647;28;20453;-80
2021/06/01 09:23:55;;;;;;;10.40;7.60;;;;;;;17.23;53.11;92785.34;4956370;29;20082;-80
2021/06/01 09:27:00;;;;;;;20.02;8.45;;;;;;;18.32;50.70;92780.19;4958283;28;20118;-77
2021/06/01 09:29:28;;;;;;;13.02;7.30;;;;;;;18.35;51.30;92778.78;4953649;28;20053;-79
2021/06/01 09:32:16;;;;;;;13.15;7.72;;;;;;;18.19;50.15;92773.31;4974639;28;20043;-80
2021/06/01 09:34:46;;;;;;;20.48;8.63;;;;;;;17.69;51.10;92781.00;4965218;28;20039;-80
2021/06/01 09:37:34;;;;;;;16.90;8.15;;;;;;;17.69;51.74;92778.34;4961468;28;20160;-81
2021/06/01 09:40:09;;;;;;;14.18;8.60;;;;;;;18.33;51.17;92779.13;4969416;28;20051;-81
2021/06/01 09:42:38;;;;;;;15.43;8.25;;;;;;;18.08;50.88;92783.53;4958105;29;20046;-80
2021/06/01 09:45:08;;;;;;;16.05;9.45;;;;;;;17.75;51.31;92772.88;4963225;28;20040;-80
2021/06/01 09:47:42;;;;;;;16.70;9.52;;;;;;;17.71;52.23;92777.28;4978782;28;20406;-79
2021/06/01 09:50:29;;;;;;;17.27;9.05;;;;;;;17.76;52.90;92771.78;4978422;28;20053;-79
2021/06/01 09:52:59;;;;;;;19.67;8.85;;;;;;;18.27;52.63;92767.94;4960222;28;20458;-80
2021/06/01 09:55:36;;;;;;;19.98;9.88;;;;;;;18.06;51.31;92765.34;4961016;28;20045;-80
2021/06/01 09:58:06;;;;;;;15.15;9.77;;;;;;;18.21;52.05;92768.47;4946624;28;20078;-80
2021/06/01 10:00:34;;;;;;;15.75;10.40;;;;;;;17.99;51.95;92757.16;4960318;28;20082;-79
2021/06/01 10:03:20;;;;;;;13.55;8.30;;;;;;;18.18;52.77;92767.25;4977575;28;20110;-79
2021/06/01 10:05:51;;;;;;;17.50;10.27;;;;;;;18.19;51.37;92774.09;4977212;28;20055;-79
2021/06/01 10:08:25;;;;;;;16.90;9.88;;;;;;;18.12;52.77;92760.59;4944140;29;20043;-78
2021/06/01 10:11:01;;;;;;;15.88;9.48;;;;;;;18.52;51.94;92757.41;4940362;29;20051;-78
2021/06/01 10:13:30;;;;;;;15.82;10.05;;;;;;;18.38;50.57;92760.34;4940438;28;20046;-79
2021/06/01 10:15:59;;;;;;;15.20;9.85;;;;;;;18.06;52.54;92751.31;4977686;28;20038;-79
2021/06/01 10:18:29;;;;;;;13.00;9.20;;;;;;;18.09;51.91;92748.78;4996552;28;20050;-78
2021/06/01 10:20:57;;;;;;;21.45;10.35;;;;;;;18.15;51.57;92752.00;4978108;28;20038;-78
2021/06/01 10:23:28;;;;;;;13.50;10.02;;;;;;;17.91;52.54;92742.09;4967206;28;20065;-80
2021/06/01 10:26:14;;;;;;;15.80;10.68;;;;;;;17.84;53.01;92741.84;4944650;28;20055;-79
2021/06/01 10:28:44;;;;;;;15.90;10.13;;;;;;;17.56;52.74;92733.63;4961349;28;20089;-79
2021/06/01 10:31:12;;;;;;;17.38;10.77;;;;;;;17.52;52.63;92736.16;4977131;28;20047;-79
2021/06/01 10:33:59;;;;;;;17.02;9.95;;;;;;;17.56;53.80;92734.41;4985168;28;20065;-79
2021/06/01 10:42:30;;;;;;;15.73;10.82;;;;;;;17.54;53.73;92735.81;4964817;28;20069;-79
2021/06/01 10:50:47;;;;;;;16.83;10.52;;;;;;;17.60;51.91;92722.06;4962783;28;20122;-80
2021/06/01 10:53:27;;;;;;;14.88;10.80;;;;;;;17.51;52.68;92724.00;4964066;28;20074;-78
2021/06/01 10:55:59;;;;;;;18.88;10.00;;;;;;;17.30;53.40;92717.94;4959508;28;20069;-78
2021/06/01 10:58:49;;;;;;;13.63;9.85;;;;;;;17.37;52.89;92729.56;4969208;28;20043;-79
2021/06/01 11:04:23;;;;;;;16.92;9.90;;;;;;;17.64;53.64;92701.78;4973320;28;20057;-79
2021/06/01 11:09:34;;;;;;;20.38;11.38;;;;;;;17.44;52.88;92703.34;4961194;28;20039;-81
2021/06/01 11:12:12;;;;;;;21.13;11.00;;;;;;;17.76;51.69;92708.22;4935372;28;20053;-80
2021/06/01 11:14:38;;;;;;;17.10;10.70;;;;;;;17.66;52.20;92699.59;4971872;28;20054;-79
2021/06/01 11:17:04;;;;;;;19.23;11.50;;;;;;;18.58;51.59;92700.41;4978130;28;20042;-80
2021/06/01 11:19:55;;;;;;;15.93;10.70;;;;;;;18.89;50.28;92699.91;4967495;28;20050;-79
2021/06/01 11:22:30;;;;;;;16.45;10.77;;;;;;;19.28;49.28;92710.16;4981043;28;20496;-82
2021/06/01 11:33:20;;;;;;;14.70;10.25;;;;;;;19.02;50.19;92697.25;4992859;28;20097;-79
2021/06/01 11:35:54;;;;;;;14.80;10.13;;;;;;;18.77;48.18;92688.50;4977178;28;20057;-80
2021/06/01 11:43:19;;;;;;;16.95;10.20;;;;;;;19.25;48.46;92695.69;4981391;28;20076;-80
2021/06/01 11:50:55;;;;;;;15.02;9.73;;;;;;;19.78;46.28;92686.94;4978429;28;20049;-79
2021/06/01 11:51:28;;;;;;;17.60;10.38;;;;;;;19.03;48.01;92688.97;4995179;28;20073;-80
2021/06/01 11:54:13;;;;;;;18.48;10.30;;;;;;;19.55;48.24;92682.09;4975546;28;20052;-79
2021/06/01 12:02:51;;;;;;;18.70;10.93;;;;;;;19.40;47.37;92680.16;4976552;28;20046;-80
2021/06/01 12:18:48;;;;;;;13.25;8.50;;;;;;;19.97;46.34;92665.78;4957258;29;20047;-79
2021/06/01 12:21:34;;;;;;;17.08;10.00;;;;;;;20.35;44.72;92673.25;4956563;28;20413;-80
2021/06/01 12:24:04;;;;;;;16.73;9.20;;;;;;;20.28;45.74;92661.66;4940092;29;20043;-79
2021/06/01 12:26:46;;;;;;;16.17;10.23;;;;;;;20.39;46.03;92665.34;4930898;28;20051;-80
2021/06/01 12:32:06;;;;;;;14.88;11.25;;;;;;;20.20;44.27;92655.41;4957936;29;20421;-81
2021/06/01 12:43:26;;;;;;;16.85;10.18;;;;;;;20.32;45.48;92659.84;4965998;28;20048;-80
2021/06/01 12:46:21;;;;;;;;;;;;;;;20.25;44.69;92667.66;4958515;28;20604;-80
2021/06/01 13:12:18;;;;;;;19.33;10.05;;;;;;;20.42;43.81;92638.06;4960021;29;20070;-81
2021/06/01 13:37:33;;;;;;;12.60;9.10;;;;;;;20.61;43.48;92620.69;4945827;28;20051;-80
2021/06/01 13:46:33;;;;;;;14.95;9.13;;;;;;;20.97;42.88;92625.69;4954173;28;20576;-80
2021/06/01 13:49:27;;;;;;;13.80;9.25;;;;;;;20.11;43.59;92618.34;4973353;28;20050;-79
2021/06/01 13:52:06;;;;;;;12.77;9.55;;;;;;;20.45;43.42;92613.47;4993498;28;20050;-80
2021/06/01 13:59:55;;;;;;;15.25;9.48;;;;;;;20.95;42.65;92605.88;4998991;28;20034;-80
2021/06/01 14:21:50;;;;;;;18.13;9.18;;;;;;;20.42;43.81;92600.84;4978011;28;20054;-79
2021/06/01 16:30:22;;;;;;;14.20;10.55;;;;;;;19.38;43.64;92576.19;4956782;29;20043;-77
2021/06/01 16:41:37;;;;;;;15.23;10.20;;;;;;;19.25;43.76;92573.59;4941046;29;20061;-77